createdAt,value
2023-01-04T00:04:18.600Z,13.38
2023-01-04T00:11:52.607Z,10.52
2023-01-04T00:19:28.106Z,14.07
2023-01-04T00:27:02.347Z,7.88
2023-01-04T00:34:37.809Z,13.07
2023-01-04T00:42:11.765Z,8.10
2023-01-04T00:49:47.142Z,9.63
2023-01-04T00:57:21.073Z,10.68
2023-01-04T01:04:56.751Z,12.00
2023-01-04T01:12:31.241Z,10.13
2023-01-04T01:20:07.546Z,9.90
2023-01-04T01:27:41.406Z,6.72
2023-01-04T01:35:17.050Z,9.33
2023-01-04T01:42:51.015Z,10.70
2023-01-04T01:50:29.555Z,9.27
2023-01-04T01:58:06.323Z,9.18
2023-01-04T02:05:42.013Z,7.00
2023-01-04T02:13:19.576Z,7.68
2023-01-04T02:20:58.802Z,8.50
2023-01-04T02:28:51.387Z,6.32
2023-01-04T02:36:34.819Z,7.88
2023-01-04T02:44:32.824Z,8.18
2023-01-04T02:52:09.682Z,9.48
2023-01-04T02:59:58.089Z,9.57
2023-01-04T03:07:40.628Z,10.43
2023-01-04T03:15:21.095Z,7.95
2023-01-04T03:23:17.370Z,10.48
2023-01-04T03:31:10.359Z,9.15
2023-01-04T03:39:10.389Z,11.88
2023-01-04T03:47:08.717Z,10.05
2023-01-04T03:54:47.966Z,11.48
2023-01-04T04:02:26.094Z,9.95
2023-01-04T04:10:01.476Z,9.95
2023-01-04T04:17:35.998Z,6.88
2023-01-04T04:32:45.395Z,10.07
2023-01-04T04:40:34.659Z,7.10
2023-01-04T04:48:08.713Z,9.25
2023-01-04T04:55:44.297Z,8.87
2023-01-04T05:03:18.273Z,8.63
2023-01-04T05:10:53.826Z,8.07
2023-01-04T05:18:28.204Z,9.23
2023-01-04T05:26:04.162Z,7.50
2023-01-04T05:33:38.036Z,10.07
2023-01-04T05:41:27.133Z,7.97
2023-01-04T05:49:01.007Z,9.05
2023-01-04T05:56:36.320Z,7.60
2023-01-04T06:04:10.334Z,9.23
2023-01-04T06:11:45.651Z,8.37
2023-01-04T06:19:19.499Z,6.20
2023-01-04T06:26:54.821Z,7.37
2023-01-04T06:34:31.071Z,9.30
2023-01-04T06:42:27.064Z,5.93
2023-01-04T06:57:36.379Z,4.95
2023-01-04T07:05:10.689Z,6.05
2023-01-04T07:12:46.525Z,5.10
2023-01-04T07:20:20.554Z,3.30
2023-01-04T07:27:56.937Z,3.80
2023-01-04T07:35:30.894Z,4.70
2023-01-04T07:43:06.229Z,3.93
2023-01-04T07:50:40.124Z,6.88
2023-01-04T07:58:15.467Z,3.30
2023-01-04T08:05:49.305Z,3.45
2023-01-04T08:13:24.585Z,5.23
2023-01-04T08:21:05.810Z,6.97
2023-01-04T08:28:41.826Z,4.40
2023-01-04T08:36:26.025Z,4.20
2023-01-04T08:44:02.325Z,4.20
2023-01-04T08:51:36.765Z,3.28
2023-01-04T08:59:13.920Z,10.88
2023-01-04T09:06:47.699Z,3.67
2023-01-04T09:14:23.120Z,7.22
2023-01-04T09:21:57.419Z,4.63
2023-01-04T09:29:32.702Z,5.40
2023-01-04T09:37:06.537Z,7.13
2023-01-04T09:52:50.405Z,8.15
2023-01-04T10:00:28.785Z,6.30
2023-01-04T10:08:03.271Z,5.25
2023-01-04T10:15:45.545Z,6.53
2023-01-04T10:23:34.664Z,7.28
2023-01-04T10:31:39.287Z,5.43
2023-01-04T10:39:16.387Z,5.65
2023-01-04T10:47:01.935Z,5.35
2023-01-04T10:54:42.902Z,4.07
2023-01-04T11:02:23.805Z,6.90
2023-01-04T11:10:04.271Z,6.15
2023-01-04T11:17:39.972Z,5.70
2023-01-04T11:33:16.467Z,4.80
2023-01-04T11:40:59.919Z,5.55
2023-01-04T11:48:41.321Z,4.55
2023-01-04T11:56:20.481Z,5.32
2023-01-04T12:03:56.024Z,5.30
2023-01-04T12:11:32.433Z,3.72
2023-01-04T12:19:07.947Z,7.25
2023-01-04T12:26:43.183Z,3.22
2023-01-04T12:34:49.000Z,3.35
2023-01-04T12:42:26.611Z,3.17
2023-01-04T12:50:03.392Z,3.40
2023-01-04T12:57:38.445Z,3.42
2023-01-04T13:05:55.318Z,3.22
2023-01-04T13:13:34.599Z,4.28
2023-01-04T13:21:14.941Z,3.80
2023-01-04T13:28:54.835Z,3.70
2023-01-04T13:36:33.200Z,4.30
2023-01-04T13:44:13.010Z,3.53
2023-01-04T13:51:48.282Z,3.53
2023-01-04T13:59:22.439Z,5.43
2023-01-04T14:07:03.008Z,4.50
2023-01-04T14:14:41.551Z,4.03
2023-01-04T14:22:51.567Z,4.32
2023-01-04T14:30:27.369Z,4.53
2023-01-04T14:38:06.794Z,3.65
2023-01-04T14:45:40.634Z,3.50
2023-01-04T14:53:16.582Z,7.72
2023-01-04T15:00:50.714Z,3.22
2023-01-04T15:08:25.984Z,2.80
2023-01-04T15:15:59.887Z,2.92
2023-01-04T15:23:35.132Z,3.92
2023-01-04T15:31:11.011Z,2.65
2023-01-04T15:38:46.254Z,3.88
2023-01-04T15:46:20.156Z,3.17
2023-01-04T15:53:56.668Z,2.70
2023-01-04T16:01:30.624Z,1.40
2023-01-04T16:09:06.806Z,2.33
2023-01-04T16:16:40.916Z,5.65
2023-01-04T16:24:44.708Z,1.40
2023-01-04T16:32:10.567Z,2.13
2023-01-04T16:47:41.502Z,1.60
2023-01-04T16:55:23.440Z,2.15
2023-01-04T17:02:58.382Z,1.75
2023-01-04T17:10:37.304Z,1.25
2023-01-04T17:18:12.498Z,2.38
2023-01-04T17:26:07.287Z,3.03
2023-01-04T17:33:41.719Z,1.97
2023-01-04T17:41:18.589Z,1.17
2023-01-04T17:49:17.926Z,2.05
2023-01-04T17:56:48.358Z,1.13
2023-01-04T18:04:22.187Z,1.10
2023-01-04T18:11:57.449Z,2.90
2023-01-04T18:19:31.858Z,2.88
2023-01-04T18:27:24.884Z,1.67
2023-01-04T18:35:04.624Z,2.15
2023-01-04T18:42:39.952Z,3.20
2023-01-04T18:50:14.033Z,2.60
2023-01-04T18:57:49.619Z,4.40
2023-01-04T19:05:24.169Z,2.25
2023-01-04T19:12:59.448Z,1.70
2023-01-04T19:20:33.238Z,1.02
2023-01-04T19:28:09.962Z,3.35
2023-01-04T19:35:46.064Z,2.00
2023-01-04T19:43:21.292Z,0.65
2023-01-04T19:51:09.064Z,0.70
2023-01-04T19:58:44.910Z,0.68
2023-01-04T20:06:18.906Z,0.77
2023-01-04T20:13:54.355Z,0.80
2023-01-04T20:21:28.196Z,0.80
2023-01-04T20:29:04.417Z,0.82
2023-01-04T20:36:39.864Z,1.00
2023-01-04T20:44:15.215Z,1.38
2023-01-04T20:51:49.005Z,1.63
2023-01-04T20:59:24.387Z,1.33
2023-01-04T21:06:58.180Z,4.63
2023-01-04T21:14:35.751Z,1.08
2023-01-04T21:22:09.677Z,2.50
2023-01-04T21:29:44.835Z,1.88
2023-01-04T21:37:19.879Z,2.15
2023-01-04T21:44:55.115Z,1.20
2023-01-04T21:52:29.069Z,2.63
2023-01-04T22:00:06.103Z,1.73
2023-01-04T22:07:40.023Z,4.00
2023-01-04T22:15:15.429Z,2.05
2023-01-04T22:22:49.411Z,2.08
2023-01-04T22:30:24.738Z,1.45
2023-01-04T22:37:59.137Z,4.30
2023-01-04T22:45:34.698Z,6.50
2023-01-04T22:53:08.703Z,4.30
2023-01-04T23:00:43.979Z,6.97
2023-01-04T23:08:17.802Z,5.72
2023-01-04T23:15:53.417Z,6.68
2023-01-04T23:23:27.512Z,4.95
2023-01-04T23:31:04.818Z,5.00
2023-01-04T23:38:39.766Z,5.28
2023-01-04T23:53:49.936Z,7.32
